createdAt,value
2018-10-18T00:01:06.758Z,11.20
2018-10-18T00:03:35.524Z,11.20
2018-10-18T00:06:03.271Z,11.20
2018-10-18T00:08:30.895Z,11.10
2018-10-18T00:10:58.515Z,11.20
2018-10-18T00:13:26.134Z,11.10
2018-10-18T00:15:53.821Z,11.10
2018-10-18T00:18:21.487Z,11.10
2018-10-18T00:20:51.342Z,11.10
2018-10-18T00:23:19.048Z,11.10
2018-10-18T00:25:46.642Z,11.00
2018-10-18T00:28:14.281Z,11.00
2018-10-18T00:30:41.945Z,10.90
2018-10-18T00:35:57.220Z,10.80
2018-10-18T00:38:24.782Z,10.80
2018-10-18T00:40:52.438Z,10.80
2018-10-18T00:43:20.084Z,10.80
2018-10-18T00:45:47.978Z,10.80
2018-10-18T00:48:15.666Z,10.90
2018-10-18T00:50:43.283Z,10.80
2018-10-18T00:53:10.938Z,10.80
2018-10-18T00:55:38.589Z,10.80
2018-10-18T00:58:06.217Z,10.70
2018-10-18T01:00:33.956Z,10.70
2018-10-18T01:03:01.620Z,10.70
2018-10-18T01:05:29.230Z,10.70
2018-10-18T01:07:56.853Z,10.70
2018-10-18T01:10:24.512Z,10.70
2018-10-18T01:12:52.126Z,10.70
2018-10-18T01:15:19.791Z,10.70
2018-10-18T01:17:47.401Z,10.60
2018-10-18T01:20:15.155Z,10.60
2018-10-18T01:22:42.706Z,10.60
2018-10-18T01:25:10.358Z,10.50
2018-10-18T01:27:38.003Z,10.60
2018-10-18T01:30:06.037Z,10.70
2018-10-18T01:32:33.650Z,10.70
2018-10-18T01:35:01.310Z,10.70
2018-10-18T01:37:28.994Z,10.60
2018-10-18T01:39:56.625Z,10.50
2018-10-18T01:42:24.331Z,10.60
2018-10-18T01:44:51.994Z,10.60
2018-10-18T01:47:19.672Z,10.60
2018-10-18T01:49:47.327Z,10.60
2018-10-18T01:52:14.981Z,10.50
2018-10-18T01:54:42.591Z,10.40
2018-10-18T01:57:10.288Z,10.40
2018-10-18T01:59:37.879Z,10.30
2018-10-18T02:02:05.685Z,10.20
2018-10-18T02:04:33.348Z,10.20
2018-10-18T02:07:01.048Z,10.30
2018-10-18T02:09:28.700Z,10.30
2018-10-18T02:11:56.333Z,10.20
2018-10-18T02:14:23.940Z,10.20
2018-10-18T02:16:51.641Z,10.20
2018-10-18T02:19:19.350Z,10.10
2018-10-18T02:21:46.923Z,10.10
2018-10-18T02:24:14.738Z,10.10
2018-10-18T02:26:42.309Z,10.00
2018-10-18T02:29:10.053Z,10.00
2018-10-18T02:31:37.630Z,9.90
2018-10-18T02:34:05.268Z,10.00
2018-10-18T02:36:32.923Z,10.00
2018-10-18T02:39:00.534Z,10.00
2018-10-18T02:41:28.150Z,9.90
2018-10-18T02:43:55.824Z,9.90
2018-10-18T02:46:23.521Z,10.00
2018-10-18T02:48:51.186Z,10.00
2018-10-18T02:51:18.871Z,10.00
2018-10-18T02:53:46.518Z,10.00
2018-10-18T02:56:14.195Z,9.90
2018-10-18T02:58:41.909Z,9.90
2018-10-18T03:01:09.485Z,9.90
2018-10-18T03:03:37.232Z,9.90
2018-10-18T03:06:05.064Z,9.80
2018-10-18T03:08:32.683Z,9.80
2018-10-18T03:11:00.289Z,9.80
2018-10-18T03:13:37.543Z,9.70
2018-10-18T03:16:05.251Z,9.70
2018-10-18T03:18:32.836Z,9.70
2018-10-18T03:21:00.504Z,9.70
2018-10-18T03:23:28.145Z,9.60
2018-10-18T03:25:55.760Z,9.60
2018-10-18T03:28:23.458Z,9.60
2018-10-18T03:30:51.188Z,9.70
2018-10-18T03:33:18.818Z,9.70
2018-10-18T03:35:46.404Z,9.80
2018-10-18T03:38:14.057Z,9.80
2018-10-18T03:40:43.847Z,9.80
2018-10-18T03:43:11.481Z,9.80
2018-10-18T03:45:39.156Z,9.80
2018-10-18T03:48:06.848Z,9.80
2018-10-18T03:50:34.387Z,9.80
2018-10-18T03:53:02.174Z,9.90
2018-10-18T03:55:29.813Z,9.80
2018-10-18T03:57:57.457Z,9.90
2018-10-18T04:00:25.166Z,9.90
2018-10-18T04:02:52.860Z,9.90
2018-10-18T04:05:20.519Z,9.90
2018-10-18T04:07:51.331Z,9.90
2018-10-18T04:10:18.970Z,9.90
2018-10-18T04:12:46.728Z,9.90
2018-10-18T04:15:14.453Z,9.90
2018-10-18T04:17:42.131Z,9.90
2018-10-18T04:20:09.951Z,9.90
2018-10-18T04:22:37.754Z,9.90
2018-10-18T04:25:05.389Z,9.90
2018-10-18T04:27:33.063Z,9.90
2018-10-18T04:30:01.769Z,9.90
2018-10-18T04:32:29.462Z,9.90
2018-10-18T04:34:57.123Z,9.80
2018-10-18T04:37:24.755Z,9.80
2018-10-18T04:39:52.402Z,9.70
2018-10-18T04:42:20.093Z,9.60
2018-10-18T04:44:47.761Z,9.50
2018-10-18T04:47:15.513Z,9.50
2018-10-18T04:49:43.154Z,9.50
2018-10-18T04:52:10.828Z,9.50
2018-10-18T04:54:38.540Z,9.50
2018-10-18T04:57:07.231Z,9.50
2018-10-18T04:59:34.913Z,9.50
2018-10-18T05:02:02.595Z,9.60
2018-10-18T05:04:30.265Z,9.60
2018-10-18T05:07:00.198Z,9.70
2018-10-18T05:09:27.743Z,9.70
2018-10-18T05:11:55.896Z,9.70
2018-10-18T05:14:23.528Z,9.70
2018-10-18T05:16:51.154Z,9.70
2018-10-18T05:19:19.460Z,9.70
2018-10-18T05:21:48.159Z,9.60
2018-10-18T05:24:15.809Z,9.70
2018-10-18T05:26:44.594Z,9.70
2018-10-18T05:29:12.257Z,9.80
2018-10-18T05:31:40.098Z,9.80
2018-10-18T05:34:07.890Z,9.80
2018-10-18T05:36:35.666Z,9.80
2018-10-18T05:39:04.162Z,9.80
2018-10-18T05:41:31.892Z,9.90
2018-10-18T05:43:59.563Z,9.90
2018-10-18T05:46:27.320Z,9.80
2018-10-18T05:48:57.681Z,9.80
2018-10-18T05:51:25.423Z,9.70
2018-10-18T05:53:53.732Z,9.70
2018-10-18T05:56:23.094Z,9.70
2018-10-18T05:58:51.854Z,9.70
2018-10-18T06:04:02.450Z,9.70
2018-10-18T06:06:31.639Z,9.70
2018-10-18T06:09:00.305Z,9.70
2018-10-18T06:11:33.336Z,9.70
2018-10-18T06:14:01.415Z,9.80
2018-10-18T06:16:29.054Z,9.70
2018-10-18T06:18:56.872Z,9.70
2018-10-18T06:21:42.147Z,9.70
2018-10-18T06:24:14.716Z,9.60
2018-10-18T06:26:44.483Z,9.70
2018-10-18T06:29:12.196Z,9.60
2018-10-18T06:31:39.885Z,9.70
2018-10-18T06:34:07.640Z,9.70
2018-10-18T06:36:35.308Z,9.80
2018-10-18T06:39:13.243Z,9.80
2018-10-18T06:41:41.454Z,9.80
2018-10-18T06:44:09.229Z,9.80
2018-10-18T06:46:36.948Z,9.80
2018-10-18T06:49:04.760Z,9.80
2018-10-18T06:51:32.336Z,9.90
2018-10-18T06:54:10.121Z,9.90
2018-10-18T06:56:37.743Z,9.90
2018-10-18T06:59:05.534Z,9.90
2018-10-18T07:01:43.345Z,9.90
2018-10-18T07:04:13.215Z,9.90
2018-10-18T07:06:41.356Z,9.80
2018-10-18T07:09:09.901Z,9.80
2018-10-18T07:11:41.593Z,9.80
2018-10-18T07:14:13.220Z,9.80
2018-10-18T07:16:47.495Z,9.70
2018-10-18T07:19:17.760Z,9.70
2018-10-18T07:24:41.670Z,9.90
2018-10-18T07:27:13.665Z,10.00
2018-10-18T07:44:57.933Z,10.00
2018-10-18T07:47:26.281Z,10.30
2018-10-18T07:49:54.577Z,10.40
2018-10-18T07:52:22.303Z,10.50
2018-10-18T07:54:49.971Z,10.60
2018-10-18T07:57:17.664Z,10.60
2018-10-18T07:59:46.439Z,10.70
2018-10-18T08:02:14.668Z,10.70
2018-10-18T08:04:47.783Z,10.70
2018-10-18T08:07:17.613Z,10.80
2018-10-18T08:09:45.399Z,10.80
2018-10-18T08:12:27.650Z,10.80
2018-10-18T08:14:55.326Z,10.90
2018-10-18T08:17:23.080Z,11.00
2018-10-18T08:19:50.667Z,11.10
2018-10-18T08:22:18.379Z,11.20
2018-10-18T08:25:04.246Z,11.30
2018-10-18T08:27:31.810Z,11.40
2018-10-18T08:29:59.464Z,11.50
2018-10-18T08:32:27.168Z,11.50
2018-10-18T08:34:54.870Z,11.70
2018-10-18T08:37:29.904Z,11.70
2018-10-18T08:39:57.552Z,11.80
2018-10-18T08:42:25.212Z,11.90
2018-10-18T08:44:58.282Z,12.00
2018-10-18T08:47:25.951Z,12.00
2018-10-18T08:49:53.707Z,11.90
2018-10-18T08:52:21.551Z,11.90
2018-10-18T08:55:01.834Z,11.90
2018-10-18T08:57:29.519Z,12.00
2018-10-18T08:59:57.222Z,12.10
2018-10-18T09:02:24.909Z,12.10
2018-10-18T09:04:52.594Z,12.20
2018-10-18T09:07:20.250Z,12.30
2018-10-18T09:09:47.921Z,12.40
2018-10-18T09:12:19.307Z,12.40
2018-10-18T09:14:47.006Z,12.50
2018-10-18T09:17:14.717Z,12.60
2018-10-18T09:19:42.330Z,12.70
2018-10-18T09:22:15.601Z,12.80
2018-10-18T09:24:48.694Z,12.90
2018-10-18T09:27:24.960Z,12.90
2018-10-18T09:30:09.460Z,13.00
2018-10-18T09:32:38.710Z,13.30
2018-10-18T09:35:08.590Z,13.50
2018-10-18T09:37:36.377Z,13.50
2018-10-18T09:40:06.290Z,13.60
2018-10-18T09:42:36.179Z,13.80
2018-10-18T09:45:04.083Z,13.90
2018-10-18T09:47:31.528Z,14.00
2018-10-18T09:50:15.698Z,14.20
2018-10-18T09:52:44.848Z,14.40
2018-10-18T09:55:13.542Z,14.50
2018-10-18T09:57:44.972Z,14.60
2018-10-18T10:00:17.988Z,14.70
2018-10-18T10:03:20.900Z,14.70
2018-10-18T10:05:48.687Z,14.70
2018-10-18T10:08:16.541Z,14.90
2018-10-18T10:10:44.414Z,15.20
2018-10-18T10:13:12.118Z,15.30
2018-10-18T10:15:40.885Z,15.50
2018-10-18T10:18:08.569Z,15.80
2018-10-18T10:20:36.267Z,16.00
2018-10-18T10:23:04.020Z,16.20
2018-10-18T10:25:31.705Z,16.40
2018-10-18T10:27:59.456Z,16.60
2018-10-18T10:30:29.257Z,16.70
2018-10-18T10:33:00.493Z,16.90
2018-10-18T10:35:31.741Z,17.00
2018-10-18T10:38:03.467Z,16.80
2018-10-18T10:40:31.107Z,17.00
2018-10-18T10:42:58.863Z,17.30
2018-10-18T10:45:26.705Z,17.40
2018-10-18T10:47:54.584Z,17.30
2018-10-18T10:50:22.328Z,17.40
2018-10-18T10:52:50.043Z,17.30
2018-10-18T10:55:17.765Z,17.70
2018-10-18T10:57:45.505Z,18.00
2018-10-18T11:00:23.478Z,18.40
2018-10-18T11:02:51.132Z,18.50
2018-10-18T11:05:18.781Z,18.30
2018-10-18T11:07:46.437Z,18.50
2018-10-18T11:10:14.142Z,18.60
2018-10-18T11:12:41.828Z,18.50
2018-10-18T11:15:13.862Z,18.40
2018-10-18T11:17:43.449Z,18.40
2018-10-18T11:20:12.209Z,18.30
2018-10-18T11:22:47.157Z,18.10
2018-10-18T11:25:14.817Z,18.40
2018-10-18T11:27:42.649Z,18.40
2018-10-18T11:30:25.910Z,18.50
2018-10-18T11:33:08.177Z,18.50
2018-10-18T11:35:36.075Z,18.80
2018-10-18T11:55:02.200Z,18.60
2018-10-18T11:57:30.072Z,18.50
2018-10-18T11:59:57.931Z,18.20
2018-10-18T12:02:33.139Z,17.90
2018-10-18T12:05:00.989Z,17.80
2018-10-18T12:07:28.877Z,17.80
2018-10-18T12:29:31.787Z,17.70
2018-10-18T12:32:09.049Z,17.40
2018-10-18T12:34:54.490Z,17.30
2018-10-18T12:37:45.602Z,17.20
2018-10-18T12:40:14.349Z,17.20
2018-10-18T12:42:44.333Z,17.20
2018-10-18T12:54:07.448Z,17.20
2018-10-18T12:56:35.115Z,17.60
2018-10-18T12:59:02.775Z,17.60
2018-10-18T13:01:31.257Z,17.70
2018-10-18T13:03:58.938Z,17.80
2018-10-18T13:06:26.534Z,18.00
2018-10-18T13:08:54.149Z,18.00
2018-10-18T13:11:21.726Z,18.20
2018-10-18T13:13:49.422Z,18.30
2018-10-18T13:16:30.341Z,18.20
2018-10-18T13:56:58.614Z,18.10
2018-10-18T13:59:42.166Z,18.20
2018-10-18T14:02:18.705Z,18.10
2018-10-18T14:25:52.081Z,18.00
2018-10-18T14:28:19.991Z,18.30
2018-10-18T14:30:47.784Z,18.30
2018-10-18T14:33:18.231Z,18.20
2018-10-18T14:35:45.953Z,18.30
2018-10-18T14:38:13.794Z,18.30
2018-10-18T14:40:41.354Z,18.30
2018-10-18T14:43:08.978Z,18.40
2018-10-18T14:45:37.133Z,18.50
2018-10-18T14:48:04.871Z,18.60
2018-10-18T14:50:33.888Z,18.50
2018-10-18T14:53:01.586Z,18.40
2018-10-18T14:55:30.397Z,18.40
2018-10-18T14:57:58.193Z,18.30
2018-10-18T15:03:27.729Z,18.20
2018-10-18T15:05:57.507Z,18.10
2018-10-18T15:08:25.238Z,18.10
2018-10-18T15:10:53.085Z,18.00
2018-10-18T15:13:21.922Z,17.90
2018-10-18T15:15:49.588Z,17.90
2018-10-18T15:18:17.339Z,17.90
2018-10-18T15:20:45.128Z,17.90
2018-10-18T15:23:12.984Z,17.90
2018-10-18T15:25:40.876Z,17.80
2018-10-18T15:28:09.186Z,17.80
2018-10-18T15:30:36.980Z,17.80
2018-10-18T15:33:04.648Z,17.80
2018-10-18T15:35:32.388Z,17.80
2018-10-18T15:38:00.287Z,17.80
2018-10-18T15:40:28.060Z,17.60
2018-10-18T15:42:55.893Z,17.60
2018-10-18T15:45:23.606Z,17.60
2018-10-18T15:47:55.117Z,17.50
2018-10-18T15:50:24.101Z,17.50
2018-10-18T15:52:51.945Z,17.40
2018-10-18T18:56:59.313Z,17.50
2018-10-18T18:59:28.056Z,15.90
2018-10-18T19:01:57.003Z,15.90
2018-10-18T19:04:24.988Z,15.90
2018-10-18T19:06:52.923Z,15.90
2018-10-18T19:09:20.926Z,15.80
2018-10-18T19:11:49.065Z,15.80
2018-10-18T19:14:17.211Z,15.80
2018-10-18T19:16:49.442Z,15.80
2018-10-18T19:19:18.355Z,15.80
2018-10-18T19:21:46.823Z,15.80
2018-10-18T19:24:14.886Z,15.80
2018-10-18T19:26:42.941Z,15.70
2018-10-18T19:29:11.898Z,15.80
2018-10-18T19:31:39.809Z,15.80
2018-10-18T19:34:07.771Z,15.70
2018-10-18T19:36:37.271Z,15.70
2018-10-18T19:39:07.355Z,15.70
2018-10-18T19:41:36.285Z,15.70
2018-10-18T19:44:04.583Z,15.70
2018-10-18T19:46:32.995Z,15.70
2018-10-18T19:49:01.376Z,15.60
2018-10-18T19:51:34.139Z,15.60
2018-10-18T19:54:01.913Z,15.60
2018-10-18T19:56:31.157Z,15.50
2018-10-18T19:58:59.821Z,15.60
2018-10-18T20:01:27.408Z,15.50
2018-10-18T20:03:55.155Z,15.50
2018-10-18T20:06:22.763Z,15.50
2018-10-18T20:08:50.440Z,15.50
2018-10-18T20:11:18.227Z,15.40
2018-10-18T20:13:45.953Z,15.50
2018-10-18T20:16:20.575Z,15.40
2018-10-18T20:18:48.212Z,15.40
2018-10-18T20:21:15.891Z,15.40
2018-10-18T20:23:43.567Z,15.40
2018-10-18T20:26:11.498Z,15.40
2018-10-18T20:28:39.845Z,15.30
2018-10-18T20:31:07.689Z,15.30
2018-10-18T20:33:35.388Z,15.30
2018-10-18T20:36:03.082Z,15.30
2018-10-18T20:38:30.697Z,15.30
2018-10-18T20:40:58.355Z,15.30
2018-10-18T20:43:26.039Z,15.30
2018-10-18T20:45:53.697Z,15.30
2018-10-18T20:48:21.267Z,15.30
2018-10-18T20:50:48.856Z,15.30
2018-10-18T20:53:18.549Z,15.30
2018-10-18T20:55:46.337Z,15.30
2018-10-18T20:58:13.994Z,15.20
2018-10-18T21:00:41.692Z,15.20
2018-10-18T21:03:09.346Z,15.20
2018-10-18T21:05:36.901Z,15.00
2018-10-18T21:08:04.547Z,15.10
2018-10-18T21:10:32.259Z,15.10
2018-10-18T21:12:59.939Z,15.00
2018-10-18T21:15:28.623Z,15.00
2018-10-18T21:17:56.222Z,15.00
2018-10-18T21:20:23.862Z,15.00
2018-10-18T21:22:51.457Z,15.00
2018-10-18T21:25:19.140Z,15.00
2018-10-18T21:27:46.750Z,14.90
2018-10-18T21:30:14.346Z,14.90
2018-10-18T21:32:41.993Z,14.90
2018-10-18T21:35:09.818Z,14.80
2018-10-18T21:37:37.371Z,14.80
2018-10-18T21:40:05.078Z,14.80
2018-10-18T21:42:32.714Z,14.70
2018-10-18T21:45:00.864Z,14.70
2018-10-18T21:47:28.670Z,14.70
2018-10-18T21:49:56.340Z,14.70
2018-10-18T21:52:23.976Z,14.60
2018-10-18T21:54:51.611Z,14.50
2018-10-18T21:57:19.209Z,14.40
2018-10-18T21:59:46.989Z,14.40
2018-10-18T22:02:14.521Z,14.30
2018-10-18T22:04:42.207Z,14.30
2018-10-18T22:07:09.822Z,14.30
2018-10-18T22:09:37.831Z,14.30
2018-10-18T22:12:05.616Z,14.20
2018-10-18T22:14:33.191Z,14.20
2018-10-18T22:17:00.930Z,14.10
2018-10-18T22:19:28.522Z,14.10
2018-10-18T22:21:56.157Z,14.00
2018-10-18T22:24:23.881Z,13.90
2018-10-18T22:26:51.497Z,13.90
2018-10-18T22:29:19.491Z,13.80
2018-10-18T22:31:47.115Z,13.70
2018-10-18T22:34:14.901Z,13.50
2018-10-18T22:36:42.692Z,13.40
2018-10-18T22:39:11.310Z,13.30
2018-10-18T22:41:39.153Z,13.20
2018-10-18T22:44:07.247Z,13.20
2018-10-18T22:46:35.103Z,13.00
2018-10-18T22:49:02.854Z,13.00
2018-10-18T22:51:30.569Z,13.00
2018-10-18T22:53:58.235Z,13.00
2018-10-18T22:56:25.890Z,12.90
2018-10-18T22:58:53.745Z,12.90
2018-10-18T23:01:21.453Z,12.90
2018-10-18T23:03:49.121Z,12.90
2018-10-18T23:06:16.761Z,12.80
2018-10-18T23:08:44.383Z,12.80
2018-10-18T23:11:12.187Z,12.80
2018-10-18T23:13:44.430Z,12.80
2018-10-18T23:16:12.186Z,12.80
2018-10-18T23:18:39.912Z,12.70
2018-10-18T23:21:07.810Z,12.70
2018-10-18T23:23:35.498Z,12.60
2018-10-18T23:26:03.224Z,12.50
2018-10-18T23:28:31.674Z,12.50
2018-10-18T23:30:59.349Z,12.40
2018-10-18T23:33:26.989Z,12.40
2018-10-18T23:35:54.652Z,12.40
2018-10-18T23:38:22.353Z,12.40
2018-10-18T23:40:50.015Z,12.30
2018-10-18T23:43:17.716Z,12.30
2018-10-18T23:45:53.246Z,12.20
2018-10-18T23:48:21.090Z,12.20
2018-10-18T23:50:48.801Z,12.10
2018-10-18T23:53:16.451Z,12.10
2018-10-18T23:55:44.062Z,12.10
2018-10-18T23:58:11.674Z,12.20
